createdAt,value
2022-08-28T00:01:55.667Z,94836.22
2022-08-28T00:04:22.309Z,94835.78
2022-08-28T00:06:49.241Z,94840.34
2022-08-28T00:09:15.745Z,94836.81
2022-08-28T00:11:42.302Z,94834.56
2022-08-28T00:14:10.843Z,94835.66
2022-08-28T00:16:37.645Z,94844.06
2022-08-28T00:19:05.013Z,94841.56
2022-08-28T00:21:32.277Z,94855.16
2022-08-28T00:24:00.006Z,94843.69
2022-08-28T00:26:26.625Z,94852.75
2022-08-28T00:28:53.223Z,94842.97
2022-08-28T00:31:19.857Z,94843.53
2022-08-28T00:33:48.164Z,94842.75
2022-08-28T00:36:14.899Z,94844.38
2022-08-28T00:38:41.414Z,94849.22
2022-08-28T00:41:09.059Z,94843.69
2022-08-28T00:43:44.498Z,94839.56
2022-08-28T00:46:20.987Z,94832.81
2022-08-28T00:48:48.032Z,94829.91
2022-08-28T00:51:16.450Z,94846.09
2022-08-28T00:53:43.517Z,94851.81
2022-08-28T00:56:13.136Z,94848.13
2022-08-28T00:58:40.686Z,94853.38
2022-08-28T01:01:07.183Z,94848.88
2022-08-28T01:03:33.734Z,94848.88
2022-08-28T01:06:00.438Z,94851.28
2022-08-28T01:08:30.287Z,94857.22
2022-08-28T01:10:59.472Z,94859.22
2022-08-28T01:13:26.647Z,94858.47
2022-08-28T01:15:54.291Z,94861.25
2022-08-28T01:18:21.166Z,94861.03
2022-08-28T01:20:56.691Z,94864.38
2022-08-28T01:23:28.803Z,94870.09
2022-08-28T01:25:55.332Z,94870.28
2022-08-28T01:28:21.891Z,94877.03
2022-08-28T01:30:49.056Z,94876.38
2022-08-28T01:33:15.917Z,94872.47
2022-08-28T01:35:45.034Z,94880.97
2022-08-28T01:38:12.122Z,94876.03
2022-08-28T01:40:46.779Z,94880.41
2022-08-28T01:43:17.327Z,94873.75
2022-08-28T01:45:46.855Z,94871.25
2022-08-28T01:48:15.350Z,94880.44
2022-08-28T01:50:42.106Z,94874.66
2022-08-28T01:53:11.954Z,94865.44
2022-08-28T01:55:39.306Z,94867.13
2022-08-28T01:58:06.918Z,94869.53
2022-08-28T02:00:33.481Z,94876.31
2022-08-28T02:03:00.318Z,94878.66
2022-08-28T02:05:30.122Z,94875.25
2022-08-28T02:07:57.801Z,94879.78
2022-08-28T02:10:26.441Z,94885.38
2022-08-28T02:12:54.973Z,94900.59
2022-08-28T02:15:27.701Z,94893.63
2022-08-28T02:17:54.654Z,94884.81
2022-08-28T02:20:21.490Z,94895.22
2022-08-28T02:22:48.497Z,94885.59
2022-08-28T02:25:15.309Z,94892.09
2022-08-28T02:27:41.798Z,94895.53
2022-08-28T02:30:10.404Z,94888.31
2022-08-28T02:32:37.039Z,94885.38
2022-08-28T02:35:05.445Z,94898.97
2022-08-28T02:37:38.431Z,94896.34
2022-08-28T02:40:05.662Z,94878.47
2022-08-28T02:42:32.205Z,94883.56
2022-08-28T02:44:58.702Z,94878.75
2022-08-28T02:47:25.285Z,94886.22
2022-08-28T02:49:51.802Z,94887.78
2022-08-28T02:52:18.433Z,94885.72
2022-08-28T02:54:45.744Z,94890.75
2022-08-28T02:57:12.368Z,94885.97
2022-08-28T02:59:38.916Z,94886.75
2022-08-28T03:02:06.483Z,94886.25
2022-08-28T03:04:42.119Z,94892.97
2022-08-28T03:07:08.616Z,94893.44
2022-08-28T03:09:37.658Z,94893.75
2022-08-28T03:12:05.117Z,94895.84
2022-08-28T03:14:31.676Z,94889.41
2022-08-28T03:16:58.253Z,94895.78
2022-08-28T03:19:24.823Z,94899.50
2022-08-28T03:21:54.222Z,94897.44
2022-08-28T03:24:20.839Z,94909.69
2022-08-28T03:26:48.259Z,94899.56
2022-08-28T03:29:14.873Z,94901.47
2022-08-28T03:31:41.383Z,94915.88
2022-08-28T03:34:08.005Z,94906.28
2022-08-28T03:36:34.611Z,94904.19
2022-08-28T03:39:04.344Z,94906.56
2022-08-28T03:41:31.634Z,94902.31
2022-08-28T03:43:59.543Z,94907.97
2022-08-28T03:46:27.501Z,94907.69
2022-08-28T03:48:54.857Z,94913.03
2022-08-28T03:51:29.200Z,94908.78
2022-08-28T03:53:59.134Z,94908.81
2022-08-28T03:56:27.891Z,94909.34
2022-08-28T03:58:58.047Z,94916.28
2022-08-28T04:01:25.473Z,94913.34
2022-08-28T04:03:52.051Z,94914.19
2022-08-28T04:06:18.670Z,94915.50
2022-08-28T04:08:45.456Z,94925.41
2022-08-28T04:11:12.103Z,94922.44
2022-08-28T04:13:38.653Z,94907.47
2022-08-28T04:16:11.048Z,94908.03
2022-08-28T04:18:40.625Z,94919.53
2022-08-28T04:21:19.113Z,94919.25
2022-08-28T04:23:46.841Z,94917.66
2022-08-28T04:26:19.223Z,94925.41
2022-08-28T04:28:46.554Z,94918.44
2022-08-28T04:31:13.242Z,94923.25
2022-08-28T04:33:39.902Z,94919.53
2022-08-28T04:36:18.405Z,94920.34
2022-08-28T04:38:45.083Z,94925.41
2022-08-28T04:41:14.796Z,94928.88
2022-08-28T04:43:42.376Z,94934.78
2022-08-28T04:46:11.693Z,94939.59
2022-08-28T04:48:38.977Z,94942.03
2022-08-28T04:51:07.694Z,94947.38
2022-08-28T04:53:34.281Z,94948.16
2022-08-28T04:56:04.035Z,94944.41
2022-08-28T04:58:30.825Z,94946.00
2022-08-28T05:00:57.490Z,94948.41
2022-08-28T05:03:24.027Z,94944.69
2022-08-28T05:05:53.017Z,94954.03
2022-08-28T05:08:22.831Z,94942.22
2022-08-28T05:10:49.740Z,94952.34
2022-08-28T05:13:18.194Z,94950.25
2022-08-28T05:15:47.380Z,94954.53
2022-08-28T05:18:15.034Z,94959.06
2022-08-28T05:20:44.106Z,94954.75
2022-08-28T05:23:11.829Z,94960.09
2022-08-28T05:25:41.423Z,94960.41
2022-08-28T05:28:11.491Z,94959.59
2022-08-28T05:30:40.424Z,94970.81
2022-08-28T05:33:07.853Z,94972.69
2022-08-28T05:35:38.957Z,94967.03
2022-08-28T05:38:06.757Z,94965.66
2022-08-28T05:40:33.991Z,94968.63
2022-08-28T05:43:00.513Z,94975.06
2022-08-28T05:45:27.088Z,94982.03
2022-08-28T05:47:53.566Z,94983.34
2022-08-28T05:50:20.234Z,94975.06
2022-08-28T05:52:46.867Z,94969.38
2022-08-28T05:55:13.563Z,94967.97
2022-08-28T05:57:40.446Z,94970.97
2022-08-28T06:00:08.333Z,94977.13
2022-08-28T06:02:34.821Z,94973.31
2022-08-28T06:05:02.184Z,94975.19
2022-08-28T06:07:28.713Z,94972.22
2022-08-28T06:09:56.835Z,94976.22
2022-08-28T06:12:23.351Z,94976.91
2022-08-28T06:14:50.001Z,94981.56
2022-08-28T06:17:16.678Z,94985.34
2022-08-28T06:19:50.071Z,94988.03
2022-08-28T06:22:16.556Z,94985.78
2022-08-28T06:24:43.082Z,94985.28
2022-08-28T06:27:09.602Z,94991.72
2022-08-28T06:29:36.111Z,94989.97
2022-08-28T06:32:03.762Z,94992.47
2022-08-28T06:34:30.419Z,94991.34
2022-08-28T06:36:56.925Z,94994.44
2022-08-28T06:39:23.536Z,94987.28
2022-08-28T06:41:50.267Z,94990.38
2022-08-28T06:44:18.911Z,94991.47
2022-08-28T06:46:46.658Z,94999.88
2022-08-28T06:49:13.510Z,95000.28
2022-08-28T06:51:40.527Z,95001.03
2022-08-28T06:54:07.637Z,95010.53
2022-08-28T06:56:34.556Z,95007.78
2022-08-28T06:59:01.048Z,95006.59
2022-08-28T07:01:33.897Z,95021.91
2022-08-28T07:04:04.404Z,95011.53
2022-08-28T07:06:35.263Z,95004.72
2022-08-28T07:09:04.496Z,95012.78
2022-08-28T07:11:31.936Z,95012.53
2022-08-28T07:13:59.079Z,95011.44
2022-08-28T07:16:29.720Z,95008.91
2022-08-28T07:18:56.917Z,95012.59
2022-08-28T07:21:23.451Z,95012.53
2022-08-28T07:23:50.707Z,95012.25
2022-08-28T07:26:22.540Z,95011.84
2022-08-28T07:28:49.836Z,95016.47
2022-08-28T07:31:20.056Z,95017.69
2022-08-28T07:33:46.803Z,95018.00
2022-08-28T07:36:29.052Z,95021.06
2022-08-28T07:38:58.207Z,95022.47
2022-08-28T07:41:27.629Z,95028.25
2022-08-28T07:43:54.257Z,95019.56
2022-08-28T07:46:20.836Z,95026.66
2022-08-28T07:48:47.434Z,95029.63
2022-08-28T07:51:13.980Z,95034.22
2022-08-28T07:53:40.490Z,95022.16
2022-08-28T07:56:07.148Z,95036.63
2022-08-28T07:58:33.765Z,95036.97
2022-08-28T08:01:00.682Z,95031.22
2022-08-28T08:03:30.787Z,95026.69
2022-08-28T08:06:03.003Z,95031.50
2022-08-28T08:08:31.063Z,95028.28
2022-08-28T08:11:11.359Z,95033.50
2022-08-28T08:13:45.108Z,95036.41
2022-08-28T08:16:18.050Z,95042.16
2022-08-28T08:18:45.135Z,95047.63
2022-08-28T08:21:14.007Z,95040.50
2022-08-28T08:23:40.855Z,95034.72
2022-08-28T08:26:10.954Z,95044.72
2022-08-28T08:28:39.125Z,95042.13
2022-08-28T08:31:10.330Z,95047.31
2022-08-28T08:33:39.091Z,95049.03
2022-08-28T08:36:07.085Z,95051.88
2022-08-28T08:38:34.496Z,95056.56
2022-08-28T08:41:04.738Z,95053.41
2022-08-28T08:43:34.481Z,95063.34
2022-08-28T08:46:01.062Z,95062.16
2022-08-28T08:48:34.249Z,95061.97
2022-08-28T08:51:14.684Z,95064.97
2022-08-28T08:53:48.835Z,95063.38
2022-08-28T08:56:17.631Z,95063.13
2022-08-28T08:58:49.470Z,95070.28
2022-08-28T09:01:44.211Z,95067.78
2022-08-28T09:04:16.798Z,95073.59
2022-08-28T09:07:16.907Z,95063.69
2022-08-28T09:09:50.568Z,95069.59
2022-08-28T09:12:28.222Z,95070.50
2022-08-28T09:15:03.523Z,95077.56
2022-08-28T09:17:34.500Z,95087.53
2022-08-28T09:20:01.045Z,95075.56
2022-08-28T09:22:27.644Z,95084.19
2022-08-28T09:24:54.972Z,95091.03
2022-08-28T09:27:23.798Z,95086.69
2022-08-28T09:30:08.424Z,95088.75
2022-08-28T09:32:38.316Z,95083.78
2022-08-28T09:35:15.313Z,95090.22
2022-08-28T09:37:43.209Z,95091.69
2022-08-28T09:40:17.633Z,95105.94
2022-08-28T09:43:06.781Z,95098.16
2022-08-28T09:45:33.402Z,95090.47
2022-08-28T09:48:00.273Z,95089.91
2022-08-28T09:50:40.647Z,95099.94
2022-08-28T09:53:10.707Z,95098.63
2022-08-28T09:55:46.648Z,95095.50
2022-08-28T09:58:13.952Z,95091.53
2022-08-28T10:00:51.230Z,95092.84
2022-08-28T10:03:34.541Z,95100.81
2022-08-28T10:06:10.043Z,95092.91
2022-08-28T10:08:51.697Z,95092.22
2022-08-28T10:11:29.879Z,95087.38
2022-08-28T10:14:34.523Z,95086.75
2022-08-28T10:17:29.056Z,95092.16
2022-08-28T10:20:20.160Z,95100.84
2022-08-28T10:22:49.566Z,95097.97
2022-08-28T10:25:17.863Z,95089.00
2022-08-28T10:28:15.691Z,95087.50
2022-08-28T10:30:58.691Z,95090.53
2022-08-28T10:33:38.230Z,95086.38
2022-08-28T10:36:34.671Z,95096.28
2022-08-28T10:39:10.592Z,95083.00
2022-08-28T10:41:58.380Z,95085.50
2022-08-28T10:44:39.223Z,95091.25
2022-08-28T10:47:07.760Z,95092.16
2022-08-28T10:49:40.647Z,95095.22
2022-08-28T10:52:11.443Z,95089.91
2022-08-28T10:54:46.533Z,95088.41
2022-08-28T10:57:39.414Z,95100.44
2022-08-28T11:00:18.872Z,95090.38
2022-08-28T11:02:48.114Z,95087.75
2022-08-28T11:05:14.978Z,95088.69
2022-08-28T11:07:45.041Z,95091.28
2022-08-28T11:10:30.415Z,95090.00
2022-08-28T11:12:59.574Z,95082.31
2022-08-28T11:15:36.459Z,95086.75
2022-08-28T11:18:17.455Z,95088.28
2022-08-28T11:21:18.154Z,95091.19
2022-08-28T11:24:09.498Z,95079.56
2022-08-28T11:26:47.265Z,95078.16
2022-08-28T11:29:54.117Z,95090.81
2022-08-28T11:32:41.464Z,95083.03
2022-08-28T11:35:46.306Z,95081.59
2022-08-28T11:38:44.716Z,95085.63
2022-08-28T11:41:16.165Z,95075.28
2022-08-28T11:43:44.680Z,95080.91
2022-08-28T11:46:16.949Z,95083.94
2022-08-28T11:48:49.782Z,95071.81
2022-08-28T11:51:41.677Z,95071.63
2022-08-28T11:54:32.355Z,95070.25
2022-08-28T11:57:10.414Z,95073.75
2022-08-28T11:59:39.658Z,95063.72
2022-08-28T12:02:24.815Z,95064.81
2022-08-28T12:04:51.519Z,95067.25
2022-08-28T12:07:20.290Z,95073.34
2022-08-28T12:09:48.573Z,95066.72
2022-08-28T12:12:21.824Z,95061.00
2022-08-28T12:14:48.441Z,95065.69
2022-08-28T12:17:15.018Z,95069.03
2022-08-28T12:19:55.854Z,95071.53
2022-08-28T12:22:41.874Z,95068.44
2022-08-28T12:25:19.054Z,95065.47
2022-08-28T12:27:45.690Z,95074.88
2022-08-28T12:30:12.343Z,95066.59
2022-08-28T12:32:44.812Z,95072.84
2022-08-28T12:35:23.984Z,95077.16
2022-08-28T12:37:53.605Z,95071.00
2022-08-28T12:40:46.977Z,95069.22
2022-08-28T12:43:28.730Z,95062.25
2022-08-28T12:46:19.257Z,95057.78
2022-08-28T12:49:01.055Z,95064.94
2022-08-28T12:51:36.160Z,95058.72
2022-08-28T12:54:07.778Z,95054.09
2022-08-28T12:56:37.009Z,95057.00
2022-08-28T12:59:27.516Z,95053.81
2022-08-28T13:01:54.952Z,95054.94
2022-08-28T13:04:28.685Z,95052.69
2022-08-28T13:07:12.609Z,95056.03
2022-08-28T13:09:48.672Z,95048.41
2022-08-28T13:12:56.291Z,95046.31
2022-08-28T13:15:42.548Z,95046.47
2022-08-28T13:18:09.471Z,95047.44
2022-08-28T13:20:37.659Z,95045.03
2022-08-28T13:23:05.093Z,95041.50
2022-08-28T13:25:36.829Z,95036.22
2022-08-28T13:28:12.764Z,95030.22
2022-08-28T13:30:39.666Z,95025.31
2022-08-28T13:33:24.033Z,95026.88
2022-08-28T13:35:51.694Z,95022.75
2022-08-28T13:38:21.657Z,95029.28
2022-08-28T13:41:12.901Z,95032.63
2022-08-28T13:43:44.968Z,95024.03
2022-08-28T13:46:11.700Z,95015.38
2022-08-28T13:48:38.447Z,95022.44
2022-08-28T13:51:10.761Z,95016.38
2022-08-28T13:53:41.593Z,95018.44
2022-08-28T13:56:08.177Z,95016.84
2022-08-28T13:58:34.914Z,95011.78
2022-08-28T14:01:02.731Z,95010.97
2022-08-28T14:03:29.294Z,95011.94
2022-08-28T14:05:56.531Z,95005.22
2022-08-28T14:08:23.044Z,95009.06
2022-08-28T14:10:50.873Z,95004.06
2022-08-28T14:13:17.407Z,95000.91
2022-08-28T14:15:43.884Z,94992.91
2022-08-28T14:18:10.366Z,94997.19
2022-08-28T14:20:37.793Z,95003.97
2022-08-28T14:23:04.300Z,95001.22
2022-08-28T14:25:30.878Z,95002.91
2022-08-28T14:27:57.865Z,95001.81
2022-08-28T14:30:24.916Z,94985.41
2022-08-28T14:32:51.671Z,94984.50
2022-08-28T14:35:18.185Z,94983.03
2022-08-28T14:37:44.666Z,94983.50
2022-08-28T14:40:13.087Z,94986.00
2022-08-28T14:42:39.888Z,94988.13
2022-08-28T14:45:07.231Z,94982.38
2022-08-28T14:47:33.752Z,94982.88
2022-08-28T14:50:00.321Z,94974.94
2022-08-28T14:52:26.920Z,94984.84
2022-08-28T14:54:53.430Z,94974.94
2022-08-28T14:57:20.647Z,94973.88
2022-08-28T14:59:48.259Z,94977.97
2022-08-28T15:02:14.733Z,94977.91
2022-08-28T15:04:41.850Z,94976.84
2022-08-28T15:07:10.835Z,94977.38
2022-08-28T15:09:40.746Z,94975.28
2022-08-28T15:12:07.788Z,94977.75
2022-08-28T15:14:35.173Z,94978.78
2022-08-28T15:17:02.051Z,94966.66
2022-08-28T15:19:28.853Z,94982.44
2022-08-28T15:21:56.589Z,94978.69
2022-08-28T15:24:25.680Z,94973.66
2022-08-28T15:26:52.418Z,94973.41
2022-08-28T15:29:19.691Z,94971.31
2022-08-28T15:31:48.129Z,94972.25
2022-08-28T15:34:18.141Z,94972.47
2022-08-28T15:36:54.693Z,94968.19
2022-08-28T15:39:26.325Z,94978.78
2022-08-28T15:41:52.883Z,94974.84
2022-08-28T15:44:19.469Z,94972.38
2022-08-28T15:46:52.924Z,94976.41
2022-08-28T15:49:23.890Z,94977.81
2022-08-28T15:51:51.279Z,94970.06
2022-08-28T15:54:17.906Z,94974.72
2022-08-28T15:56:45.033Z,94980.50
2022-08-28T15:59:12.115Z,94973.19
2022-08-28T16:01:38.914Z,94972.91
2022-08-28T16:04:06.247Z,94975.28
2022-08-28T16:06:33.560Z,94973.06
2022-08-28T16:09:00.182Z,94973.19
2022-08-28T16:11:27.004Z,94975.00
2022-08-28T16:13:59.202Z,94978.72
2022-08-28T16:16:26.007Z,94976.63
2022-08-28T16:18:55.052Z,94971.38
2022-08-28T16:21:28.304Z,94973.75
2022-08-28T16:23:55.463Z,94976.13
2022-08-28T16:26:22.537Z,94969.28
2022-08-28T16:28:50.843Z,94968.81
2022-08-28T16:37:55.433Z,94963.63
2022-08-28T16:40:21.983Z,94975.88
2022-08-28T16:42:51.588Z,94971.75
2022-08-28T16:45:22.462Z,94975.06
2022-08-28T16:47:49.278Z,94981.59
2022-08-28T16:50:23.706Z,94978.28
2022-08-28T16:52:50.837Z,94974.09
2022-08-28T16:55:21.098Z,94981.56
2022-08-28T16:57:47.704Z,94983.94
2022-08-28T17:00:20.640Z,94982.03
2022-08-28T17:02:47.215Z,94980.94
2022-08-28T17:05:16.495Z,94985.28
2022-08-28T17:07:43.015Z,94977.81
2022-08-28T17:10:16.426Z,94977.88
2022-08-28T17:13:05.719Z,94975.28
2022-08-28T17:15:32.273Z,94977.63
2022-08-28T17:17:58.840Z,94985.16
2022-08-28T17:20:57.534Z,94983.63
2022-08-28T17:23:27.208Z,94978.16
2022-08-28T17:26:12.870Z,94982.72
2022-08-28T17:32:27.981Z,94983.94
2022-08-28T17:34:54.502Z,94985.25
2022-08-28T17:37:21.022Z,94980.34
2022-08-28T17:39:48.337Z,94990.81
2022-08-28T17:42:15.035Z,94983.91
2022-08-28T17:44:41.684Z,94992.13
2022-08-28T17:47:08.235Z,94988.38
2022-08-28T17:49:35.180Z,94990.00
2022-08-28T17:54:42.408Z,94995.38
2022-08-28T17:57:12.687Z,95008.53
2022-08-28T17:59:39.347Z,95009.00
2022-08-28T18:02:06.624Z,95016.00
2022-08-28T18:04:33.956Z,95028.78
2022-08-28T18:07:00.678Z,95019.41
2022-08-28T18:09:27.544Z,95018.81
2022-08-28T18:11:54.221Z,95024.38
2022-08-28T18:14:21.282Z,95027.22
2022-08-28T18:24:29.987Z,95022.50
2022-08-28T18:30:34.343Z,95016.00
2022-08-28T18:33:01.781Z,95029.00
2022-08-28T18:35:31.691Z,95024.53
2022-08-28T18:37:59.045Z,95028.44
2022-08-28T18:40:25.828Z,95036.44
2022-08-28T18:42:55.352Z,95032.34
2022-08-28T18:51:43.827Z,95036.38
2022-08-28T18:54:12.328Z,95040.41
2022-08-28T18:57:03.877Z,95059.03
2022-08-28T18:59:43.192Z,95061.66
2022-08-28T19:02:18.107Z,95056.34
2022-08-28T19:10:47.425Z,95068.69
2022-08-28T19:13:14.267Z,95070.47
2022-08-28T19:19:10.448Z,95063.56
2022-08-28T19:21:52.825Z,95059.38
2022-08-28T19:24:52.584Z,95078.16
2022-08-28T19:27:22.235Z,95079.66
2022-08-28T19:33:05.690Z,95076.81
2022-08-28T19:35:32.172Z,95088.03
2022-08-28T19:38:20.061Z,95087.34
2022-08-28T19:41:06.113Z,95083.22
2022-08-28T19:43:43.123Z,95081.13
2022-08-28T19:46:19.590Z,95090.88
2022-08-28T19:54:48.038Z,95098.53
2022-08-28T19:57:16.904Z,95109.06
2022-08-28T20:06:03.631Z,95117.28
2022-08-28T20:08:31.017Z,95119.47
2022-08-28T20:14:09.291Z,95109.16
2022-08-28T20:16:36.948Z,95116.34
2022-08-28T20:19:04.899Z,95114.16
2022-08-28T20:21:42.866Z,95111.63
2022-08-28T20:24:14.742Z,95116.84
2022-08-28T20:26:43.735Z,95123.28
2022-08-28T20:29:10.701Z,95115.22
2022-08-28T20:34:44.598Z,95112.16
2022-08-28T20:41:33.769Z,95139.69
2022-08-28T20:44:24.493Z,95143.09
2022-08-28T20:47:19.080Z,95145.44
2022-08-28T20:50:31.390Z,95126.94
2022-08-28T20:57:02.601Z,95125.44
2022-08-28T21:03:25.151Z,95113.91
2022-08-28T21:12:42.127Z,95127.91
2022-08-28T21:15:25.420Z,95131.13
2022-08-28T21:18:02.184Z,95118.50
2022-08-28T21:24:20.233Z,95132.44
2022-08-28T21:26:50.492Z,95135.16
2022-08-28T21:29:29.535Z,95142.50
2022-08-28T21:31:57.193Z,95130.31
2022-08-28T21:34:23.795Z,95142.13
2022-08-28T21:37:03.467Z,95137.13
2022-08-28T21:39:36.870Z,95144.91
2022-08-28T21:42:32.778Z,95143.16
2022-08-28T21:45:27.285Z,95145.47
2022-08-28T21:48:08.594Z,95145.91
2022-08-28T22:02:03.531Z,95147.75
2022-08-28T22:04:58.582Z,95144.97
2022-08-28T22:07:49.153Z,95139.44
2022-08-28T22:10:25.214Z,95148.16
2022-08-28T22:13:29.177Z,95132.47
2022-08-28T22:15:59.110Z,95144.72
2022-08-28T22:19:01.427Z,95139.56
2022-08-28T22:25:10.231Z,95147.63
2022-08-28T22:27:49.884Z,95146.03
2022-08-28T22:31:06.654Z,95150.28
2022-08-28T22:36:45.064Z,95148.59
2022-08-28T22:39:14.407Z,95164.06
2022-08-28T22:45:27.450Z,95154.81
2022-08-28T22:48:02.295Z,95150.41
2022-08-28T22:50:28.915Z,95144.63
2022-08-28T22:52:56.640Z,95163.47
2022-08-28T22:55:23.546Z,95165.34
2022-08-28T22:57:59.147Z,95164.34
2022-08-28T23:01:03.449Z,95168.00
2022-08-28T23:03:33.090Z,95162.84
2022-08-28T23:06:01.152Z,95162.38
2022-08-28T23:08:34.029Z,95177.59
2022-08-28T23:11:01.217Z,95173.19
2022-08-28T23:13:28.129Z,95176.97
2022-08-28T23:16:00.266Z,95179.56
2022-08-28T23:18:27.672Z,95182.34
2022-08-28T23:21:01.794Z,95182.78
2022-08-28T23:23:30.613Z,95181.91
2022-08-28T23:25:57.117Z,95188.66
2022-08-28T23:28:23.713Z,95180.13
2022-08-28T23:31:17.175Z,95182.00
2022-08-28T23:33:43.778Z,95176.38
2022-08-28T23:36:10.686Z,95179.84
2022-08-28T23:38:42.871Z,95176.63
2022-08-28T23:41:10.447Z,95176.88
2022-08-28T23:43:37.193Z,95170.72
2022-08-28T23:46:03.746Z,95169.56
2022-08-28T23:48:31.727Z,95168.78
2022-08-28T23:50:58.579Z,95169.81
2022-08-28T23:53:25.297Z,95162.09
2022-08-28T23:55:51.823Z,95168.25
2022-08-28T23:58:30.078Z,95167.75
